sensor_id;sensor_type;location;lat;lon;timestamp;pressure;altitude;pressure_sealevel;temperature;humidity
50632;BME280;49583;45.590;-122.498;2023-05-09T00:00:00;101048.44;;;18.02;49.38
50632;BME280;49583;45.590;-122.498;2023-05-09T00:02:31;101052.01;;;17.98;49.72
50632;BME280;49583;45.590;-122.498;2023-05-09T00:05:03;101061.68;;;17.93;49.93
50632;BME280;49583;45.590;-122.498;2023-05-09T00:07:17;101062.50;;;17.87;50.03
50632;BME280;49583;45.590;-122.498;2023-05-09T00:09:47;101067.17;;;17.82;50.37
50632;BME280;49583;45.590;-122.498;2023-05-09T00:12:16;101069.33;;;17.74;49.99
50632;BME280;49583;45.590;-122.498;2023-05-09T00:14:45;101073.93;;;17.65;49.79
50632;BME280;49583;45.590;-122.498;2023-05-09T00:17:17;101080.08;;;17.60;49.66
50632;BME280;49583;45.590;-122.498;2023-05-09T00:19:46;101081.27;;;17.55;49.42
50632;BME280;49583;45.590;-122.498;2023-05-09T00:22:08;101083.48;;;17.50;49.29
50632;BME280;49583;45.590;-122.498;2023-05-09T00:24:39;101081.50;;;17.44;49.33
50632;BME280;49583;45.590;-122.498;2023-05-09T00:27:09;101083.73;;;17.41;49.41
50632;BME280;49583;45.590;-122.498;2023-05-09T00:29:38;101088.31;;;17.39;49.49
50632;BME280;49583;45.590;-122.498;2023-05-09T00:32:07;101095.35;;;17.35;49.14
50632;BME280;49583;45.590;-122.498;2023-05-09T00:34:37;101096.93;;;17.28;49.05
50632;BME280;49583;45.590;-122.498;2023-05-09T00:37:06;101108.80;;;17.23;48.97
50632;BME280;49583;45.590;-122.498;2023-05-09T00:39:35;101113.37;;;17.21;48.94
50632;BME280;49583;45.590;-122.498;2023-05-09T00:41:58;101115.81;;;17.15;49.16
50632;BME280;49583;45.590;-122.498;2023-05-09T00:44:19;101124.73;;;17.11;49.25
50632;BME280;49583;45.590;-122.498;2023-05-09T00:46:49;101129.31;;;17.06;49.27
50632;BME280;49583;45.590;-122.498;2023-05-09T00:49:18;101138.14;;;16.95;49.28
50632;BME280;49583;45.590;-122.498;2023-05-09T00:51:51;101138.24;;;16.76;49.37
50632;BME280;49583;45.590;-122.498;2023-05-09T00:54:20;101138.68;;;16.53;49.67
50632;BME280;49583;45.590;-122.498;2023-05-09T00:56:30;101140.66;;;16.37;50.08
50632;BME280;49583;45.590;-122.498;2023-05-09T00:59:00;101144.38;;;16.23;50.36
50632;BME280;49583;45.590;-122.498;2023-05-09T01:01:30;101154.86;;;16.09;50.70
50632;BME280;49583;45.590;-122.498;2023-05-09T01:03:52;101165.55;;;16.01;51.10
50632;BME280;49583;45.590;-122.498;2023-05-09T01:06:19;101169.06;;;15.95;51.36
50632;BME280;49583;45.590;-122.498;2023-05-09T01:08:57;101173.27;;;15.87;51.74
50632;BME280;49583;45.590;-122.498;2023-05-09T01:11:33;101182.12;;;15.81;51.99
50632;BME280;49583;45.590;-122.498;2023-05-09T01:14:11;101186.27;;;15.75;52.39
50632;BME280;49583;45.590;-122.498;2023-05-09T01:16:49;101192.75;;;15.68;52.80
50632;BME280;49583;45.590;-122.498;2023-05-09T01:19:41;101200.56;;;15.60;52.88
50632;BME280;49583;45.590;-122.498;2023-05-09T01:22:19;101203.66;;;15.50;53.21
50632;BME280;49583;45.590;-122.498;2023-05-09T01:25:04;101203.06;;;15.44;53.31
50632;BME280;49583;45.590;-122.498;2023-05-09T01:27:41;101205.71;;;15.40;53.75
50632;BME280;49583;45.590;-122.498;2023-05-09T01:30:16;101208.14;;;15.38;54.73
50632;BME280;49583;45.590;-122.498;2023-05-09T01:32:48;101205.91;;;15.37;55.21
50632;BME280;49583;45.590;-122.498;2023-05-09T01:35:17;101209.27;;;15.33;55.47
50632;BME280;49583;45.590;-122.498;2023-05-09T01:37:50;101212.80;;;15.25;55.36
50632;BME280;49583;45.590;-122.498;2023-05-09T01:40:21;101213.90;;;15.17;55.53
50632;BME280;49583;45.590;-122.498;2023-05-09T01:42:53;101216.50;;;15.11;55.62
50632;BME280;49583;45.590;-122.498;2023-05-09T01:45:06;101223.98;;;15.03;55.63
50632;BME280;49583;45.590;-122.498;2023-05-09T01:47:20;101225.31;;;14.96;55.93
50632;BME280;49583;45.590;-122.498;2023-05-09T01:49:52;101223.38;;;14.86;56.44
50632;BME280;49583;45.590;-122.498;2023-05-09T01:52:11;101230.67;;;14.76;56.80
50632;BME280;49583;45.590;-122.498;2023-05-09T01:54:42;101227.70;;;14.68;57.17
50632;BME280;49583;45.590;-122.498;2023-05-09T01:57:13;101237.78;;;14.61;57.46
50632;BME280;49583;45.590;-122.498;2023-05-09T01:59:45;101242.20;;;14.57;57.82
50632;BME280;49583;45.590;-122.498;2023-05-09T02:02:10;101248.52;;;14.52;57.63
50632;BME280;49583;45.590;-122.498;2023-05-09T02:04:41;101257.91;;;14.49;57.81
50632;BME280;49583;45.590;-122.498;2023-05-09T02:06:55;101263.66;;;14.49;58.03
50632;BME280;49583;45.590;-122.498;2023-05-09T02:09:25;101265.80;;;14.49;58.56
50632;BME280;49583;45.590;-122.498;2023-05-09T02:11:38;101262.82;;;14.45;58.58
50632;BME280;49583;45.590;-122.498;2023-05-09T02:13:51;101264.89;;;14.41;58.60
50632;BME280;49583;45.590;-122.498;2023-05-09T02:16:21;101266.10;;;14.34;58.77
50632;BME280;49583;45.590;-122.498;2023-05-09T02:18:50;101266.78;;;14.28;58.90
50632;BME280;49583;45.590;-122.498;2023-05-09T02:21:00;101265.83;;;14.22;59.09
50632;BME280;49583;45.590;-122.498;2023-05-09T02:23:30;101264.02;;;14.12;59.22
50632;BME280;49583;45.590;-122.498;2023-05-09T02:26:01;101263.29;;;14.02;59.78
50632;BME280;49583;45.590;-122.498;2023-05-09T02:28:14;101260.34;;;13.95;60.17
50632;BME280;49583;45.590;-122.498;2023-05-09T02:30:48;101260.56;;;13.89;60.55
50632;BME280;49583;45.590;-122.498;2023-05-09T02:33:18;101258.27;;;13.79;60.79
50632;BME280;49583;45.590;-122.498;2023-05-09T02:35:38;101267.48;;;13.75;61.28
50632;BME280;49583;45.590;-122.498;2023-05-09T02:38:10;101272.08;;;13.73;61.66
50632;BME280;49583;45.590;-122.498;2023-05-09T02:40:34;101270.02;;;13.72;61.99
50632;BME280;49583;45.590;-122.498;2023-05-09T02:43:03;101274.80;;;13.72;62.24
50632;BME280;49583;45.590;-122.498;2023-05-09T02:45:33;101272.48;;;13.69;62.42
50632;BME280;49583;45.590;-122.498;2023-05-09T02:48:03;101265.51;;;13.66;62.87
50632;BME280;49583;45.590;-122.498;2023-05-09T02:50:25;101256.39;;;13.63;62.93
50632;BME280;49583;45.590;-122.498;2023-05-09T02:52:54;101258.02;;;13.61;63.02
50632;BME280;49583;45.590;-122.498;2023-05-09T02:55:09;101258.73;;;13.57;63.33
50632;BME280;49583;45.590;-122.498;2023-05-09T02:57:31;101267.45;;;13.52;63.23
50632;BME280;49583;45.590;-122.498;2023-05-09T02:59:53;101273.89;;;13.52;63.53
50632;BME280;49583;45.590;-122.498;2023-05-09T03:02:23;101274.23;;;13.50;63.86
50632;BME280;49583;45.590;-122.498;2023-05-09T03:04:53;101276.06;;;13.46;64.06
50632;BME280;49583;45.590;-122.498;2023-05-09T03:07:13;101278.18;;;13.42;64.03
50632;BME280;49583;45.590;-122.498;2023-05-09T03:09:36;101278.54;;;13.39;64.08
50632;BME280;49583;45.590;-122.498;2023-05-09T03:12:00;101283.41;;;13.39;64.55
50632;BME280;49583;45.590;-122.498;2023-05-09T03:14:20;101282.58;;;13.37;64.52
50632;BME280;49583;45.590;-122.498;2023-05-09T03:16:40;101283.60;;;13.34;64.59
50632;BME280;49583;45.590;-122.498;2023-05-09T03:18:58;101284.29;;;13.33;64.88
50632;BME280;49583;45.590;-122.498;2023-05-09T03:21:27;101283.08;;;13.32;65.05
50632;BME280;49583;45.590;-122.498;2023-05-09T03:23:57;101286.92;;;13.30;65.29
50632;BME280;49583;45.590;-122.498;2023-05-09T03:26:25;101288.50;;;13.31;65.43
50632;BME280;49583;45.590;-122.498;2023-05-09T03:28:44;101289.77;;;13.32;65.81
50632;BME280;49583;45.590;-122.498;2023-05-09T03:31:15;101293.48;;;13.28;65.80
50632;BME280;49583;45.590;-122.498;2023-05-09T03:33:44;101293.38;;;13.20;65.86
50632;BME280;49583;45.590;-122.498;2023-05-09T03:36:14;101296.98;;;13.16;65.89
50632;BME280;49583;45.590;-122.498;2023-05-09T03:38:33;101299.12;;;13.13;66.15
50632;BME280;49583;45.590;-122.498;2023-05-09T03:41:03;101305.10;;;13.11;66.58
50632;BME280;49583;45.590;-122.498;2023-05-09T03:43:17;101302.18;;;13.06;66.66
50632;BME280;49583;45.590;-122.498;2023-05-09T03:45:47;101306.89;;;13.02;66.72
50632;BME280;49583;45.590;-122.498;2023-05-09T03:48:16;101304.52;;;12.98;66.79
50632;BME280;49583;45.590;-122.498;2023-05-09T03:50:46;101307.70;;;12.96;67.04
50632;BME280;49583;45.590;-122.498;2023-05-09T03:53:15;101309.65;;;12.96;67.29
50632;BME280;49583;45.590;-122.498;2023-05-09T03:55:45;101311.32;;;12.93;67.42
50632;BME280;49583;45.590;-122.498;2023-05-09T03:58:14;101315.29;;;12.91;67.48
50632;BME280;49583;45.590;-122.498;2023-05-09T04:00:45;101318.20;;;12.88;67.42
50632;BME280;49583;45.590;-122.498;2023-05-09T04:03:15;101317.06;;;12.87;67.60
50632;BME280;49583;45.590;-122.498;2023-05-09T04:05:44;101319.73;;;12.87;67.71
50632;BME280;49583;45.590;-122.498;2023-05-09T04:08:12;101320.44;;;12.87;67.76
50632;BME280;49583;45.590;-122.498;2023-05-09T04:10:33;101317.30;;;12.87;67.99
50632;BME280;49583;45.590;-122.498;2023-05-09T04:13:04;101322.59;;;12.88;68.05
50632;BME280;49583;45.590;-122.498;2023-05-09T04:15:34;101327.52;;;12.90;68.10
50632;BME280;49583;45.590;-122.498;2023-05-09T04:18:04;101328.40;;;12.91;68.00
50632;BME280;49583;45.590;-122.498;2023-05-09T04:20:34;101331.38;;;12.91;68.22
50632;BME280;49583;45.590;-122.498;2023-05-09T04:23:04;101326.46;;;12.92;68.38
50632;BME280;49583;45.590;-122.498;2023-05-09T04:25:13;101324.30;;;12.90;68.44
50632;BME280;49583;45.590;-122.498;2023-05-09T04:27:35;101327.66;;;12.90;68.41
50632;BME280;49583;45.590;-122.498;2023-05-09T04:30:05;101333.35;;;12.84;68.63
50632;BME280;49583;45.590;-122.498;2023-05-09T04:32:35;101336.13;;;12.82;68.75
50632;BME280;49583;45.590;-122.498;2023-05-09T04:34:46;101340.74;;;12.81;68.92
50632;BME280;49583;45.590;-122.498;2023-05-09T04:37:14;101348.20;;;12.81;69.01
50632;BME280;49583;45.590;-122.498;2023-05-09T04:39:34;101345.55;;;12.82;68.98
50632;BME280;49583;45.590;-122.498;2023-05-09T04:42:03;101348.27;;;12.81;69.09
50632;BME280;49583;45.590;-122.498;2023-05-09T04:44:33;101352.35;;;12.81;69.16
50632;BME280;49583;45.590;-122.498;2023-05-09T04:47:02;101358.16;;;12.81;69.12
50632;BME280;49583;45.590;-122.498;2023-05-09T04:49:16;101362.42;;;12.82;69.22
50632;BME280;49583;45.590;-122.498;2023-05-09T04:51:46;101361.80;;;12.79;69.20
50632;BME280;49583;45.590;-122.498;2023-05-09T04:54:15;101361.36;;;12.76;69.16
50632;BME280;49583;45.590;-122.498;2023-05-09T04:56:45;101364.66;;;12.73;69.33
50632;BME280;49583;45.590;-122.498;2023-05-09T04:59:16;101366.17;;;12.71;69.50
50632;BME280;49583;45.590;-122.498;2023-05-09T05:01:46;101366.20;;;12.72;69.53
50632;BME280;49583;45.590;-122.498;2023-05-09T05:03:59;101366.42;;;12.71;69.65
50632;BME280;49583;45.590;-122.498;2023-05-09T05:06:22;101366.97;;;12.71;69.67
50632;BME280;49583;45.590;-122.498;2023-05-09T05:08:35;101369.10;;;12.72;69.60
50632;BME280;49583;45.590;-122.498;2023-05-09T05:11:05;101372.06;;;12.71;69.86
50632;BME280;49583;45.590;-122.498;2023-05-09T05:13:24;101371.04;;;12.71;69.75
50632;BME280;49583;45.590;-122.498;2023-05-09T05:15:49;101374.63;;;12.70;69.84
50632;BME280;49583;45.590;-122.498;2023-05-09T05:18:09;101376.36;;;12.70;69.92
50632;BME280;49583;45.590;-122.498;2023-05-09T05:20:28;101374.31;;;12.69;69.86
50632;BME280;49583;45.590;-122.498;2023-05-09T05:22:57;101375.48;;;12.68;69.83
50632;BME280;49583;45.590;-122.498;2023-05-09T05:25:27;101376.06;;;12.67;69.92
50632;BME280;49583;45.590;-122.498;2023-05-09T05:27:56;101377.91;;;12.65;69.87
50632;BME280;49583;45.590;-122.498;2023-05-09T05:30:26;101384.00;;;12.64;70.02
50632;BME280;49583;45.590;-122.498;2023-05-09T05:32:55;101382.77;;;12.63;69.93
50632;BME280;49583;45.590;-122.498;2023-05-09T05:35:16;101380.94;;;12.61;70.02
50632;BME280;49583;45.590;-122.498;2023-05-09T05:37:29;101382.30;;;12.62;70.10
50632;BME280;49583;45.590;-122.498;2023-05-09T05:39:59;101380.70;;;12.61;70.16
50632;BME280;49583;45.590;-122.498;2023-05-09T05:42:12;101376.64;;;12.55;70.06
50632;BME280;49583;45.590;-122.498;2023-05-09T05:44:42;101382.99;;;12.56;70.12
50632;BME280;49583;45.590;-122.498;2023-05-09T05:47:11;101385.55;;;12.54;70.15
50632;BME280;49583;45.590;-122.498;2023-05-09T05:49:41;101389.14;;;12.53;70.20
50632;BME280;49583;45.590;-122.498;2023-05-09T05:52:10;101392.92;;;12.51;70.25
50632;BME280;49583;45.590;-122.498;2023-05-09T05:54:39;101394.65;;;12.48;70.29
50632;BME280;49583;45.590;-122.498;2023-05-09T05:56:49;101399.11;;;12.47;70.24
50632;BME280;49583;45.590;-122.498;2023-05-09T05:59:08;101396.43;;;12.47;70.43
50632;BME280;49583;45.590;-122.498;2023-05-09T06:01:39;101397.37;;;12.46;70.48
50632;BME280;49583;45.590;-122.498;2023-05-09T06:04:09;101396.50;;;12.46;70.48
50632;BME280;49583;45.590;-122.498;2023-05-09T06:06:39;101395.52;;;12.44;70.49
50632;BME280;49583;45.590;-122.498;2023-05-09T06:08:52;101398.25;;;12.44;70.60
50632;BME280;49583;45.590;-122.498;2023-05-09T06:11:22;101402.63;;;12.43;70.77
50632;BME280;49583;45.590;-122.498;2023-05-09T06:13:34;101403.63;;;12.43;70.71
50632;BME280;49583;45.590;-122.498;2023-05-09T06:16:05;101406.05;;;12.42;70.67
50632;BME280;49583;45.590;-122.498;2023-05-09T06:18:29;101405.97;;;12.42;70.81
50632;BME280;49583;45.590;-122.498;2023-05-09T06:20:59;101406.30;;;12.42;70.95
50632;BME280;49583;45.590;-122.498;2023-05-09T06:23:19;101406.50;;;12.41;70.86
50632;BME280;49583;45.590;-122.498;2023-05-09T06:25:49;101411.81;;;12.41;70.68
50632;BME280;49583;45.590;-122.498;2023-05-09T06:28:11;101408.05;;;12.37;70.68
50632;BME280;49583;45.590;-122.498;2023-05-09T06:30:40;101408.95;;;12.36;70.56
50632;BME280;49583;45.590;-122.498;2023-05-09T06:32:49;101410.71;;;12.34;70.84
50632;BME280;49583;45.590;-122.498;2023-05-09T06:35:19;101412.48;;;12.33;70.87
50632;BME280;49583;45.590;-122.498;2023-05-09T06:37:48;101413.93;;;12.30;70.92
50632;BME280;49583;45.590;-122.498;2023-05-09T06:40:16;101415.67;;;12.28;70.86
50632;BME280;49583;45.590;-122.498;2023-05-09T06:42:46;101417.70;;;12.25;70.82
50632;BME280;49583;45.590;-122.498;2023-05-09T06:45:15;101421.17;;;12.23;70.94
50632;BME280;49583;45.590;-122.498;2023-05-09T06:47:46;101422.86;;;12.21;70.93
50632;BME280;49583;45.590;-122.498;2023-05-09T06:49:55;101421.65;;;12.20;71.02
50632;BME280;49583;45.590;-122.498;2023-05-09T06:52:24;101424.02;;;12.18;71.12
50632;BME280;49583;45.590;-122.498;2023-05-09T06:54:54;101427.99;;;12.17;71.25
50632;BME280;49583;45.590;-122.498;2023-05-09T06:57:20;101431.91;;;12.17;71.33
50632;BME280;49583;45.590;-122.498;2023-05-09T06:59:40;101436.66;;;12.15;71.40
50632;BME280;49583;45.590;-122.498;2023-05-09T07:02:11;101441.25;;;12.14;71.46
50632;BME280;49583;45.590;-122.498;2023-05-09T07:04:31;101441.67;;;12.12;71.48
50632;BME280;49583;45.590;-122.498;2023-05-09T07:06:58;101445.60;;;12.10;71.55
50632;BME280;49583;45.590;-122.498;2023-05-09T07:09:27;101447.89;;;12.07;71.52
50632;BME280;49583;45.590;-122.498;2023-05-09T07:11:50;101453.37;;;12.04;71.71
50632;BME280;49583;45.590;-122.498;2023-05-09T07:14:20;101453.44;;;12.01;71.75
50632;BME280;49583;45.590;-122.498;2023-05-09T07:16:39;101454.44;;;12.01;71.91
50632;BME280;49583;45.590;-122.498;2023-05-09T07:19:08;101455.52;;;12.00;72.07
50632;BME280;49583;45.590;-122.498;2023-05-09T07:21:36;101457.65;;;12.01;72.13
50632;BME280;49583;45.590;-122.498;2023-05-09T07:23:55;101459.05;;;12.00;72.21
50632;BME280;49583;45.590;-122.498;2023-05-09T07:26:24;101462.86;;;11.98;72.10
50632;BME280;49583;45.590;-122.498;2023-05-09T07:28:45;101468.20;;;11.96;72.22
50632;BME280;49583;45.590;-122.498;2023-05-09T07:31:07;101468.88;;;11.92;72.30
50632;BME280;49583;45.590;-122.498;2023-05-09T07:33:28;101472.09;;;11.92;72.23
50632;BME280;49583;45.590;-122.498;2023-05-09T07:35:51;101477.55;;;11.90;72.24
50632;BME280;49583;45.590;-122.498;2023-05-09T07:38:20;101479.37;;;11.89;72.26
50632;BME280;49583;45.590;-122.498;2023-05-09T07:40:49;101480.13;;;11.88;72.45
50632;BME280;49583;45.590;-122.498;2023-05-09T07:43:19;101484.13;;;11.88;72.58
50632;BME280;49583;45.590;-122.498;2023-05-09T07:45:31;101480.88;;;11.87;72.52
50632;BME280;49583;45.590;-122.498;2023-05-09T07:48:01;101482.85;;;11.87;72.64
50632;BME280;49583;45.590;-122.498;2023-05-09T07:50:22;101484.70;;;11.86;72.60
50632;BME280;49583;45.590;-122.498;2023-05-09T07:52:50;101485.52;;;11.85;72.61
50632;BME280;49583;45.590;-122.498;2023-05-09T07:55:12;101488.65;;;11.84;72.56
50632;BME280;49583;45.590;-122.498;2023-05-09T07:57:42;101483.06;;;11.81;72.55
50632;BME280;49583;45.590;-122.498;2023-05-09T08:00:00;101489.96;;;11.81;72.68
50632;BME280;49583;45.590;-122.498;2023-05-09T08:02:33;101493.32;;;11.81;72.82
50632;BME280;49583;45.590;-122.498;2023-05-09T08:04:56;101492.52;;;11.80;72.66
50632;BME280;49583;45.590;-122.498;2023-05-09T08:07:16;101495.70;;;11.79;72.73
50632;BME280;49583;45.590;-122.498;2023-05-09T08:09:45;101497.05;;;11.77;72.78
50632;BME280;49583;45.590;-122.498;2023-05-09T08:12:07;101501.99;;;11.76;72.77
50632;BME280;49583;45.590;-122.498;2023-05-09T08:14:29;101498.89;;;11.73;72.83
50632;BME280;49583;45.590;-122.498;2023-05-09T08:16:58;101506.81;;;11.74;72.88
50632;BME280;49583;45.590;-122.498;2023-05-09T08:19:21;101509.73;;;11.72;72.81
50632;BME280;49583;45.590;-122.498;2023-05-09T08:21:44;101514.23;;;11.71;72.94
50632;BME280;49583;45.590;-122.498;2023-05-09T08:24:14;101518.74;;;11.69;72.90
50632;BME280;49583;45.590;-122.498;2023-05-09T08:26:44;101522.94;;;11.68;72.98
50632;BME280;49583;45.590;-122.498;2023-05-09T08:29:13;101518.48;;;11.66;72.92
50632;BME280;49583;45.590;-122.498;2023-05-09T08:31:43;101519.52;;;11.64;72.93
50632;BME280;49583;45.590;-122.498;2023-05-09T08:34:13;101513.23;;;11.61;72.93
50632;BME280;49583;45.590;-122.498;2023-05-09T08:36:42;101520.64;;;11.59;72.96
50632;BME280;49583;45.590;-122.498;2023-05-09T08:39:13;101518.27;;;11.58;72.88
50632;BME280;49583;45.590;-122.498;2023-05-09T08:41:42;101519.13;;;11.56;72.96
50632;BME280;49583;45.590;-122.498;2023-05-09T08:44:05;101522.58;;;11.54;72.88
50632;BME280;49583;45.590;-122.498;2023-05-09T08:46:38;101526.34;;;11.51;72.89
50632;BME280;49583;45.590;-122.498;2023-05-09T08:49:10;101531.72;;;11.50;72.99
50632;BME280;49583;45.590;-122.498;2023-05-09T08:51:20;101530.84;;;11.47;72.95
50632;BME280;49583;45.590;-122.498;2023-05-09T08:53:51;101527.11;;;11.46;73.00
50632;BME280;49583;45.590;-122.498;2023-05-09T08:56:13;101531.48;;;11.45;73.06
50632;BME280;49583;45.590;-122.498;2023-05-09T08:58:35;101529.37;;;11.43;73.03
50632;BME280;49583;45.590;-122.498;2023-05-09T09:01:05;101535.23;;;11.40;72.95
50632;BME280;49583;45.590;-122.498;2023-05-09T09:03:35;101533.27;;;11.37;72.92
50632;BME280;49583;45.590;-122.498;2023-05-09T09:05:45;101536.42;;;11.33;72.85
50632;BME280;49583;45.590;-122.498;2023-05-09T09:08:08;101538.59;;;11.29;72.92
50632;BME280;49583;45.590;-122.498;2023-05-09T09:10:32;101543.53;;;11.26;72.68
50632;BME280;49583;45.590;-122.498;2023-05-09T09:13:02;101548.39;;;11.20;72.84
50632;BME280;49583;45.590;-122.498;2023-05-09T09:15:36;101553.65;;;11.16;72.90
50632;BME280;49583;45.590;-122.498;2023-05-09T09:18:08;101556.64;;;11.09;72.73
50632;BME280;49583;45.590;-122.498;2023-05-09T09:20:29;101561.11;;;11.07;72.93
50632;BME280;49583;45.590;-122.498;2023-05-09T09:23:01;101562.35;;;11.04;72.94
50632;BME280;49583;45.590;-122.498;2023-05-09T09:25:32;101564.92;;;11.02;73.02
50632;BME280;49583;45.590;-122.498;2023-05-09T09:28:01;101567.27;;;10.99;73.02
50632;BME280;49583;45.590;-122.498;2023-05-09T09:30:31;101567.70;;;10.96;73.21
50632;BME280;49583;45.590;-122.498;2023-05-09T09:33:09;101570.11;;;10.93;73.21
50632;BME280;49583;45.590;-122.498;2023-05-09T09:35:26;101567.45;;;10.90;73.25
50632;BME280;49583;45.590;-122.498;2023-05-09T09:37:47;101568.67;;;10.87;73.41
50632;BME280;49583;45.590;-122.498;2023-05-09T09:40:12;101572.45;;;10.84;73.27
50632;BME280;49583;45.590;-122.498;2023-05-09T09:42:44;101573.96;;;10.82;73.32
50632;BME280;49583;45.590;-122.498;2023-05-09T09:45:05;101575.67;;;10.79;73.56
50632;BME280;49583;45.590;-122.498;2023-05-09T09:47:33;101576.92;;;10.77;73.65
50632;BME280;49583;45.590;-122.498;2023-05-09T09:49:47;101575.64;;;10.74;73.42
50632;BME280;49583;45.590;-122.498;2023-05-09T09:51:57;101579.52;;;10.73;73.67
50632;BME280;49583;45.590;-122.498;2023-05-09T09:54:16;101580.14;;;10.71;73.59
50632;BME280;49583;45.590;-122.498;2023-05-09T09:56:47;101579.55;;;10.70;73.63
50632;BME280;49583;45.590;-122.498;2023-05-09T09:59:11;101577.98;;;10.67;73.68
50632;BME280;49583;45.590;-122.498;2023-05-09T10:02:03;101576.73;;;10.65;73.77
50632;BME280;49583;45.590;-122.498;2023-05-09T10:04:18;101581.67;;;10.63;73.77
50632;BME280;49583;45.590;-122.498;2023-05-09T10:06:30;101581.08;;;10.62;73.65
50632;BME280;49583;45.590;-122.498;2023-05-09T10:08:40;101583.89;;;10.59;73.66
50632;BME280;49583;45.590;-122.498;2023-05-09T10:10:49;101585.61;;;10.59;73.79
50632;BME280;49583;45.590;-122.498;2023-05-09T10:13:00;101582.56;;;10.57;73.69
50632;BME280;49583;45.590;-122.498;2023-05-09T10:15:11;101583.17;;;10.56;73.86
50632;BME280;49583;45.590;-122.498;2023-05-09T10:17:23;101587.54;;;10.54;73.57
50632;BME280;49583;45.590;-122.498;2023-05-09T10:19:34;101593.02;;;10.50;73.44
50632;BME280;49583;45.590;-122.498;2023-05-09T10:21:50;101593.16;;;10.45;73.41
50632;BME280;49583;45.590;-122.498;2023-05-09T10:24:11;101592.72;;;10.39;73.34
50632;BME280;49583;45.590;-122.498;2023-05-09T10:26:24;101590.69;;;10.35;73.48
50632;BME280;49583;45.590;-122.498;2023-05-09T10:28:41;101589.05;;;10.29;73.33
50632;BME280;49583;45.590;-122.498;2023-05-09T10:31:00;101592.46;;;10.26;73.20
50632;BME280;49583;45.590;-122.498;2023-05-09T10:33:16;101591.45;;;10.22;73.33
50632;BME280;49583;45.590;-122.498;2023-05-09T10:35:32;101591.67;;;10.18;73.36
50632;BME280;49583;45.590;-122.498;2023-05-09T10:37:42;101597.55;;;10.15;73.66
50632;BME280;49583;45.590;-122.498;2023-05-09T10:39:52;101596.19;;;10.12;73.47
50632;BME280;49583;45.590;-122.498;2023-05-09T10:42:02;101594.72;;;10.08;73.56
50632;BME280;49583;45.590;-122.498;2023-05-09T10:44:15;101595.36;;;10.05;73.52
50632;BME280;49583;45.590;-122.498;2023-05-09T10:46:25;101596.77;;;10.02;73.32
50632;BME280;49583;45.590;-122.498;2023-05-09T10:48:35;101595.38;;;9.98;73.58
50632;BME280;49583;45.590;-122.498;2023-05-09T10:50:45;101594.86;;;9.95;73.53
50632;BME280;49583;45.590;-122.498;2023-05-09T10:53:09;101596.38;;;9.92;73.80
50632;BME280;49583;45.590;-122.498;2023-05-09T10:55:49;101601.30;;;9.90;73.78
50632;BME280;49583;45.590;-122.498;2023-05-09T11:00:31;101609.55;;;9.85;73.86
50632;BME280;49583;45.590;-122.498;2023-05-09T11:02:41;101609.55;;;9.83;73.87
50632;BME280;49583;45.590;-122.498;2023-05-09T11:05:13;101611.30;;;9.82;73.67
50632;BME280;49583;45.590;-122.498;2023-05-09T11:07:26;101609.35;;;9.78;73.86
50632;BME280;49583;45.590;-122.498;2023-05-09T11:09:37;101611.45;;;9.76;73.87
50632;BME280;49583;45.590;-122.498;2023-05-09T11:11:54;101613.02;;;9.74;73.84
50632;BME280;49583;45.590;-122.498;2023-05-09T11:14:03;101613.15;;;9.72;74.08
50632;BME280;49583;45.590;-122.498;2023-05-09T11:16:16;101612.19;;;9.69;73.69
50632;BME280;49583;45.590;-122.498;2023-05-09T11:18:29;101611.70;;;9.66;73.92
50632;BME280;49583;45.590;-122.498;2023-05-09T11:20:43;101614.70;;;9.63;73.94
50632;BME280;49583;45.590;-122.498;2023-05-09T11:22:54;101615.16;;;9.61;73.95
50632;BME280;49583;45.590;-122.498;2023-05-09T11:25:06;101613.48;;;9.58;74.03
50632;BME280;49583;45.590;-122.498;2023-05-09T11:27:22;101615.80;;;9.55;74.06
50632;BME280;49583;45.590;-122.498;2023-05-09T11:29:43;101615.23;;;9.53;74.09
50632;BME280;49583;45.590;-122.498;2023-05-09T11:32:07;101615.10;;;9.52;74.11
50632;BME280;49583;45.590;-122.498;2023-05-09T11:34:23;101610.61;;;9.49;74.05
50632;BME280;49583;45.590;-122.498;2023-05-09T11:36:38;101612.92;;;9.46;74.15
50632;BME280;49583;45.590;-122.498;2023-05-09T11:39:01;101609.78;;;9.44;74.17
50632;BME280;49583;45.590;-122.498;2023-05-09T11:41:21;101607.96;;;9.41;74.29
50632;BME280;49583;45.590;-122.498;2023-05-09T11:43:38;101610.48;;;9.40;74.25
50632;BME280;49583;45.590;-122.498;2023-05-09T11:45:47;101606.11;;;9.37;74.02
50632;BME280;49583;45.590;-122.498;2023-05-09T11:47:57;101610.63;;;9.36;74.32
50632;BME280;49583;45.590;-122.498;2023-05-09T11:50:10;101609.74;;;9.32;73.92
50632;BME280;49583;45.590;-122.498;2023-05-09T11:52:20;101615.36;;;9.28;74.20
50632;BME280;49583;45.590;-122.498;2023-05-09T11:54:30;101616.62;;;9.24;74.11
50632;BME280;49583;45.590;-122.498;2023-05-09T11:56:41;101620.41;;;9.22;74.11
50632;BME280;49583;45.590;-122.498;2023-05-09T11:58:53;101619.13;;;9.20;74.70
50632;BME280;49583;45.590;-122.498;2023-05-09T12:01:02;101617.00;;;9.18;74.43
50632;BME280;49583;45.590;-122.498;2023-05-09T12:03:12;101617.13;;;9.18;74.61
50632;BME280;49583;45.590;-122.498;2023-05-09T12:05:23;101616.09;;;9.15;74.56